PAH weather

Barkley Regional Airport
Paducah, Kentucky, United States

Public forecast

Using degrees Fahrenheit for public forecast. Weather courtesy of forecast.io.

Current aviation weather report (METAR) for Barkley Regional Airport

Retrieved 2019/10/18 10:01 UTC (20 minutes ago):

KPAH 181001Z AUTO 00000KT 3/4SM BR CLR 02/01 A3004 RMK AO2 T00220011

Aviation forecast (TAF) for Barkley Regional Airport

Retrieved 2019/10/18 06:22 UTC (4 hours ago):

TAF KPAH 180520Z 1806/1906 00000KT P6SM SKC FM181500 12006KT P6SM SKC FM190000 VRB03KT P6SM SCT250